sensor_id;sensor_type;location;lat;lon;timestamp;P1;durP1;ratioP1;P2;durP2;ratioP2
11255;SDS011;5685;52.384;13.420;2023-02-28T00:01:23;68.80;;;36.77;;
11255;SDS011;5685;52.384;13.420;2023-02-28T00:04:27;68.67;;;36.60;;
11255;SDS011;5685;52.384;13.420;2023-02-28T00:07:30;68.97;;;36.73;;
11255;SDS011;5685;52.384;13.420;2023-02-28T00:10:32;68.97;;;36.77;;
11255;SDS011;5685;52.384;13.420;2023-02-28T00:13:36;69.17;;;36.80;;
11255;SDS011;5685;52.384;13.420;2023-02-28T00:16:40;68.90;;;36.60;;
11255;SDS011;5685;52.384;13.420;2023-02-28T00:19:44;69.17;;;36.83;;
11255;SDS011;5685;52.384;13.420;2023-02-28T00:22:47;69.60;;;36.97;;
11255;SDS011;5685;52.384;13.420;2023-02-28T00:25:51;69.10;;;36.83;;
11255;SDS011;5685;52.384;13.420;2023-02-28T00:28:54;69.63;;;37.03;;
11255;SDS011;5685;52.384;13.420;2023-02-28T00:31:56;69.17;;;36.90;;
11255;SDS011;5685;52.384;13.420;2023-02-28T00:35:01;68.73;;;36.53;;
11255;SDS011;5685;52.384;13.420;2023-02-28T00:38:04;69.03;;;36.77;;
11255;SDS011;5685;52.384;13.420;2023-02-28T00:41:06;69.00;;;36.80;;
11255;SDS011;5685;52.384;13.420;2023-02-28T00:44:09;69.57;;;37.00;;
11255;SDS011;5685;52.384;13.420;2023-02-28T00:47:12;69.90;;;37.10;;
11255;SDS011;5685;52.384;13.420;2023-02-28T00:50:16;69.40;;;36.97;;
11255;SDS011;5685;52.384;13.420;2023-02-28T00:53:19;69.07;;;36.70;;
11255;SDS011;5685;52.384;13.420;2023-02-28T00:56:22;69.03;;;36.67;;
11255;SDS011;5685;52.384;13.420;2023-02-28T00:59:24;69.07;;;36.70;;
11255;SDS011;5685;52.384;13.420;2023-02-28T01:02:27;69.03;;;36.60;;
11255;SDS011;5685;52.384;13.420;2023-02-28T01:05:31;68.80;;;36.60;;
11255;SDS011;5685;52.384;13.420;2023-02-28T01:08:33;68.73;;;36.50;;
11255;SDS011;5685;52.384;13.420;2023-02-28T01:11:36;69.27;;;36.77;;
11255;SDS011;5685;52.384;13.420;2023-02-28T01:14:39;69.20;;;36.80;;
11255;SDS011;5685;52.384;13.420;2023-02-28T01:17:41;69.30;;;36.90;;
11255;SDS011;5685;52.384;13.420;2023-02-28T01:20:46;68.60;;;36.40;;
11255;SDS011;5685;52.384;13.420;2023-02-28T01:23:49;69.40;;;36.90;;
11255;SDS011;5685;52.384;13.420;2023-02-28T01:26:52;68.70;;;36.40;;
11255;SDS011;5685;52.384;13.420;2023-02-28T01:29:54;69.30;;;36.80;;
11255;SDS011;5685;52.384;13.420;2023-02-28T01:32:57;69.20;;;36.73;;
11255;SDS011;5685;52.384;13.420;2023-02-28T01:36:02;68.37;;;36.27;;
11255;SDS011;5685;52.384;13.420;2023-02-28T01:39:05;69.07;;;36.80;;
11255;SDS011;5685;52.384;13.420;2023-02-28T01:42:08;68.80;;;36.63;;
11255;SDS011;5685;52.384;13.420;2023-02-28T01:45:18;68.93;;;36.70;;
11255;SDS011;5685;52.384;13.420;2023-02-28T01:48:24;69.03;;;36.70;;
11255;SDS011;5685;52.384;13.420;2023-02-28T01:51:30;68.80;;;36.57;;
11255;SDS011;5685;52.384;13.420;2023-02-28T01:54:35;69.07;;;36.77;;
11255;SDS011;5685;52.384;13.420;2023-02-28T01:57:38;69.33;;;37.00;;
11255;SDS011;5685;52.384;13.420;2023-02-28T02:00:43;68.90;;;36.70;;
11255;SDS011;5685;52.384;13.420;2023-02-28T02:03:46;68.63;;;36.53;;
11255;SDS011;5685;52.384;13.420;2023-02-28T02:06:56;69.30;;;36.87;;
11255;SDS011;5685;52.384;13.420;2023-02-28T02:10:01;69.03;;;36.67;;
11255;SDS011;5685;52.384;13.420;2023-02-28T02:13:08;68.97;;;36.70;;
11255;SDS011;5685;52.384;13.420;2023-02-28T02:16:22;68.63;;;36.57;;
11255;SDS011;5685;52.384;13.420;2023-02-28T02:19:41;68.83;;;36.63;;
11255;SDS011;5685;52.384;13.420;2023-02-28T02:26:55;68.33;;;36.43;;
11255;SDS011;5685;52.384;13.420;2023-02-28T02:30:27;68.77;;;36.63;;
11255;SDS011;5685;52.384;13.420;2023-02-28T02:34:03;69.37;;;36.87;;
11255;SDS011;5685;52.384;13.420;2023-02-28T02:37:25;69.00;;;36.60;;
11255;SDS011;5685;52.384;13.420;2023-02-28T02:40:33;69.17;;;36.77;;
11255;SDS011;5685;52.384;13.420;2023-02-28T02:43:40;69.10;;;36.83;;
11255;SDS011;5685;52.384;13.420;2023-02-28T02:46:46;68.47;;;36.63;;
11255;SDS011;5685;52.384;13.420;2023-02-28T02:49:52;68.90;;;36.80;;
11255;SDS011;5685;52.384;13.420;2023-02-28T02:52:57;68.80;;;36.80;;
11255;SDS011;5685;52.384;13.420;2023-02-28T02:56:02;69.07;;;36.80;;
11255;SDS011;5685;52.384;13.420;2023-02-28T02:59:06;68.93;;;36.80;;
11255;SDS011;5685;52.384;13.420;2023-02-28T03:02:11;68.80;;;36.70;;
11255;SDS011;5685;52.384;13.420;2023-02-28T03:05:18;68.77;;;36.70;;
11255;SDS011;5685;52.384;13.420;2023-02-28T03:08:23;68.93;;;36.67;;
11255;SDS011;5685;52.384;13.420;2023-02-28T03:11:25;69.17;;;36.70;;
11255;SDS011;5685;52.384;13.420;2023-02-28T03:14:31;68.67;;;36.67;;
11255;SDS011;5685;52.384;13.420;2023-02-28T03:17:48;68.47;;;36.53;;
11255;SDS011;5685;52.384;13.420;2023-02-28T03:20:58;68.90;;;36.77;;
11255;SDS011;5685;52.384;13.420;2023-02-28T03:24:08;69.03;;;36.77;;
11255;SDS011;5685;52.384;13.420;2023-02-28T03:27:15;68.77;;;36.47;;
11255;SDS011;5685;52.384;13.420;2023-02-28T03:30:22;68.60;;;36.60;;
11255;SDS011;5685;52.384;13.420;2023-02-28T03:33:28;68.80;;;36.73;;
11255;SDS011;5685;52.384;13.420;2023-02-28T03:36:35;68.43;;;36.53;;
11255;SDS011;5685;52.384;13.420;2023-02-28T03:39:45;68.90;;;36.80;;
11255;SDS011;5685;52.384;13.420;2023-02-28T03:42:51;68.80;;;36.60;;
11255;SDS011;5685;52.384;13.420;2023-02-28T03:45:57;69.17;;;36.80;;
11255;SDS011;5685;52.384;13.420;2023-02-28T03:49:03;69.23;;;36.87;;
11255;SDS011;5685;52.384;13.420;2023-02-28T03:52:10;69.10;;;36.70;;
11255;SDS011;5685;52.384;13.420;2023-02-28T03:55:13;69.03;;;36.63;;
11255;SDS011;5685;52.384;13.420;2023-02-28T03:58:20;69.17;;;36.90;;
11255;SDS011;5685;52.384;13.420;2023-02-28T04:01:26;68.80;;;36.73;;
11255;SDS011;5685;52.384;13.420;2023-02-28T04:04:32;69.00;;;36.80;;
11255;SDS011;5685;52.384;13.420;2023-02-28T04:07:36;68.33;;;36.40;;
11255;SDS011;5685;52.384;13.420;2023-02-28T04:10:39;69.17;;;36.80;;
11255;SDS011;5685;52.384;13.420;2023-02-28T04:13:43;68.83;;;36.73;;
11255;SDS011;5685;52.384;13.420;2023-02-28T04:16:46;68.90;;;36.70;;
11255;SDS011;5685;52.384;13.420;2023-02-28T04:19:48;68.60;;;36.67;;
11255;SDS011;5685;52.384;13.420;2023-02-28T04:22:52;68.40;;;36.47;;
11255;SDS011;5685;52.384;13.420;2023-02-28T04:25:55;68.83;;;36.77;;
11255;SDS011;5685;52.384;13.420;2023-02-28T04:28:58;69.00;;;36.93;;
11255;SDS011;5685;52.384;13.420;2023-02-28T04:32:03;68.73;;;36.70;;
11255;SDS011;5685;52.384;13.420;2023-02-28T04:35:07;68.77;;;36.60;;
11255;SDS011;5685;52.384;13.420;2023-02-28T04:38:11;69.17;;;36.90;;
11255;SDS011;5685;52.384;13.420;2023-02-28T04:41:13;69.13;;;36.83;;
11255;SDS011;5685;52.384;13.420;2023-02-28T04:44:16;68.37;;;36.40;;
11255;SDS011;5685;52.384;13.420;2023-02-28T04:47:20;68.23;;;36.33;;
11255;SDS011;5685;52.384;13.420;2023-02-28T04:50:23;68.33;;;36.40;;
11255;SDS011;5685;52.384;13.420;2023-02-28T04:53:27;68.33;;;36.40;;
11255;SDS011;5685;52.384;13.420;2023-02-28T04:56:30;68.47;;;36.50;;
11255;SDS011;5685;52.384;13.420;2023-02-28T04:59:33;68.60;;;36.63;;
11255;SDS011;5685;52.384;13.420;2023-02-28T05:02:35;68.97;;;36.77;;
11255;SDS011;5685;52.384;13.420;2023-02-28T05:05:38;68.10;;;36.30;;
11255;SDS011;5685;52.384;13.420;2023-02-28T05:08:43;68.57;;;36.53;;
11255;SDS011;5685;52.384;13.420;2023-02-28T05:11:45;68.67;;;36.60;;
11255;SDS011;5685;52.384;13.420;2023-02-28T05:14:48;68.67;;;36.60;;
11255;SDS011;5685;52.384;13.420;2023-02-28T05:17:50;69.00;;;36.70;;
11255;SDS011;5685;52.384;13.420;2023-02-28T05:20:53;68.63;;;36.50;;
11255;SDS011;5685;52.384;13.420;2023-02-28T05:23:57;68.13;;;36.20;;
11255;SDS011;5685;52.384;13.420;2023-02-28T05:27:01;68.53;;;36.50;;
11255;SDS011;5685;52.384;13.420;2023-02-28T05:30:04;68.23;;;36.30;;
11255;SDS011;5685;52.384;13.420;2023-02-28T05:33:10;68.23;;;36.30;;
11255;SDS011;5685;52.384;13.420;2023-02-28T05:36:13;68.83;;;36.57;;
11255;SDS011;5685;52.384;13.420;2023-02-28T05:39:17;68.87;;;36.60;;
11255;SDS011;5685;52.384;13.420;2023-02-28T05:42:19;68.20;;;36.30;;
11255;SDS011;5685;52.384;13.420;2023-02-28T05:45:22;68.63;;;36.50;;
11255;SDS011;5685;52.384;13.420;2023-02-28T05:48:25;68.37;;;36.33;;
11255;SDS011;5685;52.384;13.420;2023-02-28T05:51:27;68.47;;;36.50;;
11255;SDS011;5685;52.384;13.420;2023-02-28T05:54:32;68.63;;;36.60;;
11255;SDS011;5685;52.384;13.420;2023-02-28T05:57:34;68.20;;;36.40;;
11255;SDS011;5685;52.384;13.420;2023-02-28T06:00:37;68.50;;;36.40;;
11255;SDS011;5685;52.384;13.420;2023-02-28T06:03:39;68.77;;;36.53;;
11255;SDS011;5685;52.384;13.420;2023-02-28T06:06:42;69.07;;;36.73;;
11255;SDS011;5685;52.384;13.420;2023-02-28T06:09:46;68.30;;;36.27;;
11255;SDS011;5685;52.384;13.420;2023-02-28T06:12:49;68.47;;;36.33;;
11255;SDS011;5685;52.384;13.420;2023-02-28T06:15:52;68.43;;;36.43;;
11255;SDS011;5685;52.384;13.420;2023-02-28T06:18:56;68.33;;;36.30;;
11255;SDS011;5685;52.384;13.420;2023-02-28T06:21:59;68.50;;;36.40;;
11255;SDS011;5685;52.384;13.420;2023-02-28T06:25:03;68.70;;;36.47;;
11255;SDS011;5685;52.384;13.420;2023-02-28T06:28:06;68.30;;;36.30;;
11255;SDS011;5685;52.384;13.420;2023-02-28T06:31:10;68.03;;;36.30;;
11255;SDS011;5685;52.384;13.420;2023-02-28T06:34:13;68.60;;;36.50;;
11255;SDS011;5685;52.384;13.420;2023-02-28T06:37:16;68.63;;;36.50;;
11255;SDS011;5685;52.384;13.420;2023-02-28T06:40:20;68.33;;;36.37;;
11255;SDS011;5685;52.384;13.420;2023-02-28T06:43:23;68.17;;;36.30;;
11255;SDS011;5685;52.384;13.420;2023-02-28T06:46:26;68.90;;;36.70;;
11255;SDS011;5685;52.384;13.420;2023-02-28T06:49:29;68.33;;;36.33;;
11255;SDS011;5685;52.384;13.420;2023-02-28T06:52:32;68.93;;;36.50;;
11255;SDS011;5685;52.384;13.420;2023-02-28T06:55:38;68.50;;;36.40;;
11255;SDS011;5685;52.384;13.420;2023-02-28T06:58:41;69.13;;;36.63;;
11255;SDS011;5685;52.384;13.420;2023-02-28T07:01:47;69.13;;;36.67;;
11255;SDS011;5685;52.384;13.420;2023-02-28T07:04:49;68.80;;;36.57;;
11255;SDS011;5685;52.384;13.420;2023-02-28T07:07:52;68.80;;;36.47;;
11255;SDS011;5685;52.384;13.420;2023-02-28T07:10:56;69.07;;;36.53;;
11255;SDS011;5685;52.384;13.420;2023-02-28T07:13:58;68.67;;;36.33;;
11255;SDS011;5685;52.384;13.420;2023-02-28T07:17:01;68.77;;;36.30;;
11255;SDS011;5685;52.384;13.420;2023-02-28T07:20:04;69.20;;;36.60;;
11255;SDS011;5685;52.384;13.420;2023-02-28T07:23:07;69.00;;;36.60;;
11255;SDS011;5685;52.384;13.420;2023-02-28T07:26:13;68.70;;;36.47;;
11255;SDS011;5685;52.384;13.420;2023-02-28T07:29:17;68.77;;;36.33;;
11255;SDS011;5685;52.384;13.420;2023-02-28T07:32:19;68.57;;;36.30;;
11255;SDS011;5685;52.384;13.420;2023-02-28T07:35:22;69.20;;;36.37;;
11255;SDS011;5685;52.384;13.420;2023-02-28T07:38:25;69.13;;;36.50;;
11255;SDS011;5685;52.384;13.420;2023-02-28T07:41:29;69.53;;;36.80;;
11255;SDS011;5685;52.384;13.420;2023-02-28T07:44:34;68.73;;;36.40;;
11255;SDS011;5685;52.384;13.420;2023-02-28T07:47:40;68.70;;;36.40;;
11255;SDS011;5685;52.384;13.420;2023-02-28T07:50:43;68.63;;;36.50;;
11255;SDS011;5685;52.384;13.420;2023-02-28T07:53:52;68.43;;;36.33;;
11255;SDS011;5685;52.384;13.420;2023-02-28T07:56:56;68.70;;;36.43;;
11255;SDS011;5685;52.384;13.420;2023-02-28T07:59:59;68.77;;;36.47;;
11255;SDS011;5685;52.384;13.420;2023-02-28T08:03:03;68.83;;;36.60;;
11255;SDS011;5685;52.384;13.420;2023-02-28T08:06:06;68.73;;;36.47;;
11255;SDS011;5685;52.384;13.420;2023-02-28T08:09:13;68.90;;;36.53;;
11255;SDS011;5685;52.384;13.420;2023-02-28T08:12:17;68.33;;;36.30;;
11255;SDS011;5685;52.384;13.420;2023-02-28T08:15:19;68.47;;;36.40;;
11255;SDS011;5685;52.384;13.420;2023-02-28T08:18:22;68.53;;;36.43;;
11255;SDS011;5685;52.384;13.420;2023-02-28T08:21:25;68.57;;;36.37;;
11255;SDS011;5685;52.384;13.420;2023-02-28T08:24:28;68.67;;;36.50;;
11255;SDS011;5685;52.384;13.420;2023-02-28T08:27:32;68.47;;;36.50;;
11255;SDS011;5685;52.384;13.420;2023-02-28T08:30:34;68.60;;;36.50;;
11255;SDS011;5685;52.384;13.420;2023-02-28T08:33:37;68.50;;;36.43;;
11255;SDS011;5685;52.384;13.420;2023-02-28T08:36:41;68.70;;;36.57;;
11255;SDS011;5685;52.384;13.420;2023-02-28T08:39:44;68.37;;;36.40;;
11255;SDS011;5685;52.384;13.420;2023-02-28T08:42:48;68.20;;;36.20;;
11255;SDS011;5685;52.384;13.420;2023-02-28T08:45:51;69.00;;;36.53;;
11255;SDS011;5685;52.384;13.420;2023-02-28T08:48:54;68.13;;;36.23;;
11255;SDS011;5685;52.384;13.420;2023-02-28T08:52:00;68.53;;;36.40;;
11255;SDS011;5685;52.384;13.420;2023-02-28T08:55:02;68.37;;;36.30;;
11255;SDS011;5685;52.384;13.420;2023-02-28T08:58:07;68.63;;;36.43;;
11255;SDS011;5685;52.384;13.420;2023-02-28T09:01:10;69.07;;;36.67;;
11255;SDS011;5685;52.384;13.420;2023-02-28T09:04:13;68.07;;;36.20;;
11255;SDS011;5685;52.384;13.420;2023-02-28T09:07:16;68.67;;;36.40;;
11255;SDS011;5685;52.384;13.420;2023-02-28T09:10:19;68.50;;;36.40;;
11255;SDS011;5685;52.384;13.420;2023-02-28T09:13:23;68.77;;;36.50;;
11255;SDS011;5685;52.384;13.420;2023-02-28T09:16:26;68.13;;;36.33;;
11255;SDS011;5685;52.384;13.420;2023-02-28T09:19:28;68.40;;;36.40;;
11255;SDS011;5685;52.384;13.420;2023-02-28T09:22:31;68.70;;;36.60;;
11255;SDS011;5685;52.384;13.420;2023-02-28T09:25:34;68.83;;;36.50;;
11255;SDS011;5685;52.384;13.420;2023-02-28T09:28:38;68.83;;;36.53;;
11255;SDS011;5685;52.384;13.420;2023-02-28T09:31:40;68.63;;;36.47;;
11255;SDS011;5685;52.384;13.420;2023-02-28T09:34:43;68.60;;;36.50;;
11255;SDS011;5685;52.384;13.420;2023-02-28T09:37:46;69.00;;;36.63;;
11255;SDS011;5685;52.384;13.420;2023-02-28T09:40:50;68.50;;;36.40;;
11255;SDS011;5685;52.384;13.420;2023-02-28T09:43:55;68.10;;;36.17;;
11255;SDS011;5685;52.384;13.420;2023-02-28T09:47:05;68.83;;;36.43;;
11255;SDS011;5685;52.384;13.420;2023-02-28T09:50:16;68.63;;;36.40;;
11255;SDS011;5685;52.384;13.420;2023-02-28T09:53:26;68.33;;;36.20;;
11255;SDS011;5685;52.384;13.420;2023-02-28T09:56:36;68.27;;;36.20;;
11255;SDS011;5685;52.384;13.420;2023-02-28T09:59:43;68.70;;;36.47;;
11255;SDS011;5685;52.384;13.420;2023-02-28T10:06:26;68.83;;;36.60;;
11255;SDS011;5685;52.384;13.420;2023-02-28T10:09:31;68.70;;;36.47;;
11255;SDS011;5685;52.384;13.420;2023-02-28T10:12:35;68.77;;;36.60;;
11255;SDS011;5685;52.384;13.420;2023-02-28T10:15:42;68.47;;;36.53;;
11255;SDS011;5685;52.384;13.420;2023-02-28T10:18:48;68.33;;;36.40;;
11255;SDS011;5685;52.384;13.420;2023-02-28T10:21:55;68.37;;;36.30;;
11255;SDS011;5685;52.384;13.420;2023-02-28T10:24:59;69.00;;;36.63;;
11255;SDS011;5685;52.384;13.420;2023-02-28T10:28:08;68.67;;;36.40;;
11255;SDS011;5685;52.384;13.420;2023-02-28T10:31:15;68.57;;;36.43;;
11255;SDS011;5685;52.384;13.420;2023-02-28T10:34:20;68.30;;;36.23;;
11255;SDS011;5685;52.384;13.420;2023-02-28T10:37:22;68.63;;;36.40;;
11255;SDS011;5685;52.384;13.420;2023-02-28T10:40:27;68.60;;;36.37;;
11255;SDS011;5685;52.384;13.420;2023-02-28T10:43:32;68.07;;;36.13;;
11255;SDS011;5685;52.384;13.420;2023-02-28T10:46:37;68.50;;;36.37;;
11255;SDS011;5685;52.384;13.420;2023-02-28T10:49:45;68.70;;;36.60;;
11255;SDS011;5685;52.384;13.420;2023-02-28T10:52:49;68.47;;;36.57;;
11255;SDS011;5685;52.384;13.420;2023-02-28T10:55:58;68.27;;;36.37;;
11255;SDS011;5685;52.384;13.420;2023-02-28T10:59:03;67.97;;;36.30;;
11255;SDS011;5685;52.384;13.420;2023-02-28T11:02:30;68.37;;;36.43;;
11255;SDS011;5685;52.384;13.420;2023-02-28T11:05:35;68.43;;;36.50;;
11255;SDS011;5685;52.384;13.420;2023-02-28T11:08:43;68.27;;;36.43;;
11255;SDS011;5685;52.384;13.420;2023-02-28T11:11:47;67.50;;;36.20;;
11255;SDS011;5685;52.384;13.420;2023-02-28T11:14:53;68.17;;;36.47;;
11255;SDS011;5685;52.384;13.420;2023-02-28T11:17:59;68.13;;;36.50;;
11255;SDS011;5685;52.384;13.420;2023-02-28T11:21:03;68.13;;;36.40;;
11255;SDS011;5685;52.384;13.420;2023-02-28T11:24:12;68.77;;;36.80;;
11255;SDS011;5685;52.384;13.420;2023-02-28T11:27:39;68.37;;;36.37;;
11255;SDS011;5685;52.384;13.420;2023-02-28T11:30:53;68.13;;;36.40;;
11255;SDS011;5685;52.384;13.420;2023-02-28T11:34:10;68.63;;;36.63;;
11255;SDS011;5685;52.384;13.420;2023-02-28T11:37:25;68.60;;;36.60;;
11255;SDS011;5685;52.384;13.420;2023-02-28T11:40:31;68.03;;;36.33;;
11255;SDS011;5685;52.384;13.420;2023-02-28T11:43:46;68.47;;;36.70;;
11255;SDS011;5685;52.384;13.420;2023-02-28T11:46:58;68.20;;;36.43;;
11255;SDS011;5685;52.384;13.420;2023-02-28T11:50:08;68.57;;;36.70;;
11255;SDS011;5685;52.384;13.420;2023-02-28T11:53:21;68.33;;;36.53;;
11255;SDS011;5685;52.384;13.420;2023-02-28T11:56:32;68.50;;;36.70;;
11255;SDS011;5685;52.384;13.420;2023-02-28T11:59:45;68.77;;;36.77;;
11255;SDS011;5685;52.384;13.420;2023-02-28T12:02:55;68.27;;;36.50;;
11255;SDS011;5685;52.384;13.420;2023-02-28T12:06:09;68.33;;;36.40;;
11255;SDS011;5685;52.384;13.420;2023-02-28T12:09:20;68.60;;;36.70;;
11255;SDS011;5685;52.384;13.420;2023-02-28T12:12:44;68.23;;;36.40;;
11255;SDS011;5685;52.384;13.420;2023-02-28T12:15:57;68.43;;;36.50;;
11255;SDS011;5685;52.384;13.420;2023-02-28T12:19:15;68.67;;;36.60;;
11255;SDS011;5685;52.384;13.420;2023-02-28T12:22:26;68.50;;;36.70;;
11255;SDS011;5685;52.384;13.420;2023-02-28T12:25:36;68.67;;;36.80;;
11255;SDS011;5685;52.384;13.420;2023-02-28T12:28:47;68.33;;;36.50;;
11255;SDS011;5685;52.384;13.420;2023-02-28T12:31:53;68.80;;;36.73;;
11255;SDS011;5685;52.384;13.420;2023-02-28T12:34:58;68.50;;;36.60;;
11255;SDS011;5685;52.384;13.420;2023-02-28T12:38:05;68.63;;;36.67;;
11255;SDS011;5685;52.384;13.420;2023-02-28T12:41:12;68.67;;;36.60;;
11255;SDS011;5685;52.384;13.420;2023-02-28T12:44:17;69.03;;;36.70;;
11255;SDS011;5685;52.384;13.420;2023-02-28T12:47:23;68.43;;;36.50;;
11255;SDS011;5685;52.384;13.420;2023-02-28T12:50:25;68.83;;;36.70;;
11255;SDS011;5685;52.384;13.420;2023-02-28T12:53:33;68.53;;;36.50;;
11255;SDS011;5685;52.384;13.420;2023-02-28T12:56:43;69.07;;;36.90;;
11255;SDS011;5685;52.384;13.420;2023-02-28T12:59:49;68.70;;;36.73;;
11255;SDS011;5685;52.384;13.420;2023-02-28T13:03:01;69.57;;;37.17;;
11255;SDS011;5685;52.384;13.420;2023-02-28T13:06:43;69.13;;;37.00;;
11255;SDS011;5685;52.384;13.420;2023-02-28T13:09:55;68.80;;;36.90;;
11255;SDS011;5685;52.384;13.420;2023-02-28T13:13:01;69.00;;;36.90;;
11255;SDS011;5685;52.384;13.420;2023-02-28T13:16:06;68.47;;;36.70;;
11255;SDS011;5685;52.384;13.420;2023-02-28T13:19:10;68.50;;;36.80;;
11255;SDS011;5685;52.384;13.420;2023-02-28T13:22:18;69.03;;;37.00;;
11255;SDS011;5685;52.384;13.420;2023-02-28T13:28:58;68.67;;;36.77;;
11255;SDS011;5685;52.384;13.420;2023-02-28T13:32:28;68.73;;;36.97;;
11255;SDS011;5685;52.384;13.420;2023-02-28T13:35:36;68.63;;;36.73;;
11255;SDS011;5685;52.384;13.420;2023-02-28T13:38:46;68.80;;;36.87;;
11255;SDS011;5685;52.384;13.420;2023-02-28T13:41:50;69.07;;;36.97;;
11255;SDS011;5685;52.384;13.420;2023-02-28T13:48:25;68.87;;;36.83;;
11255;SDS011;5685;52.384;13.420;2023-02-28T13:51:37;69.03;;;37.10;;
11255;SDS011;5685;52.384;13.420;2023-02-28T13:54:44;68.57;;;36.77;;
11255;SDS011;5685;52.384;13.420;2023-02-28T13:58:19;69.00;;;36.93;;
11255;SDS011;5685;52.384;13.420;2023-02-28T14:01:45;68.63;;;36.83;;
11255;SDS011;5685;52.384;13.420;2023-02-28T14:04:59;69.20;;;37.20;;
11255;SDS011;5685;52.384;13.420;2023-02-28T14:08:04;69.13;;;37.23;;
11255;SDS011;5685;52.384;13.420;2023-02-28T14:11:24;68.97;;;36.90;;
11255;SDS011;5685;52.384;13.420;2023-02-28T14:17:58;68.77;;;37.07;;
11255;SDS011;5685;52.384;13.420;2023-02-28T14:21:09;69.33;;;37.37;;
11255;SDS011;5685;52.384;13.420;2023-02-28T14:24:38;68.93;;;37.20;;
11255;SDS011;5685;52.384;13.420;2023-02-28T14:27:52;68.77;;;37.20;;
11255;SDS011;5685;52.384;13.420;2023-02-28T14:31:03;68.37;;;36.97;;
11255;SDS011;5685;52.384;13.420;2023-02-28T14:34:20;68.53;;;37.00;;
11255;SDS011;5685;52.384;13.420;2023-02-28T14:37:34;68.80;;;37.20;;
11255;SDS011;5685;52.384;13.420;2023-02-28T14:40:40;69.10;;;37.30;;
11255;SDS011;5685;52.384;13.420;2023-02-28T14:43:47;69.13;;;37.40;;
11255;SDS011;5685;52.384;13.420;2023-02-28T14:46:54;68.37;;;37.00;;
11255;SDS011;5685;52.384;13.420;2023-02-28T14:49:58;69.00;;;37.37;;
11255;SDS011;5685;52.384;13.420;2023-02-28T14:53:01;69.07;;;37.40;;
11255;SDS011;5685;52.384;13.420;2023-02-28T14:56:05;69.03;;;37.40;;
11255;SDS011;5685;52.384;13.420;2023-02-28T14:59:23;69.03;;;37.43;;
11255;SDS011;5685;52.384;13.420;2023-02-28T15:02:30;69.13;;;37.40;;
11255;SDS011;5685;52.384;13.420;2023-02-28T15:05:35;68.57;;;37.23;;
11255;SDS011;5685;52.384;13.420;2023-02-28T15:08:38;69.10;;;37.37;;
11255;SDS011;5685;52.384;13.420;2023-02-28T15:11:40;69.23;;;37.37;;
11255;SDS011;5685;52.384;13.420;2023-02-28T15:14:46;68.90;;;37.13;;
11255;SDS011;5685;52.384;13.420;2023-02-28T15:17:51;68.90;;;37.20;;
11255;SDS011;5685;52.384;13.420;2023-02-28T15:20:55;68.97;;;37.33;;
11255;SDS011;5685;52.384;13.420;2023-02-28T15:23:58;68.70;;;37.17;;
11255;SDS011;5685;52.384;13.420;2023-02-28T15:27:04;69.13;;;37.57;;
11255;SDS011;5685;52.384;13.420;2023-02-28T15:30:13;68.50;;;37.13;;
11255;SDS011;5685;52.384;13.420;2023-02-28T15:33:20;68.83;;;37.40;;
11255;SDS011;5685;52.384;13.420;2023-02-28T15:36:25;68.83;;;37.30;;
11255;SDS011;5685;52.384;13.420;2023-02-28T15:39:31;69.00;;;37.40;;
11255;SDS011;5685;52.384;13.420;2023-02-28T15:42:57;68.70;;;37.33;;
11255;SDS011;5685;52.384;13.420;2023-02-28T15:46:01;68.93;;;37.40;;
11255;SDS011;5685;52.384;13.420;2023-02-28T15:49:12;68.73;;;37.27;;
11255;SDS011;5685;52.384;13.420;2023-02-28T15:52:23;68.80;;;37.47;;
11255;SDS011;5685;52.384;13.420;2023-02-28T15:55:28;68.77;;;37.37;;
11255;SDS011;5685;52.384;13.420;2023-02-28T15:58:30;68.53;;;37.23;;
11255;SDS011;5685;52.384;13.420;2023-02-28T16:01:34;68.50;;;37.23;;
11255;SDS011;5685;52.384;13.420;2023-02-28T16:04:54;68.40;;;37.10;;
11255;SDS011;5685;52.384;13.420;2023-02-28T16:07:58;69.07;;;37.43;;
11255;SDS011;5685;52.384;13.420;2023-02-28T16:11:02;68.90;;;37.40;;
11255;SDS011;5685;52.384;13.420;2023-02-28T16:14:05;69.13;;;37.57;;
11255;SDS011;5685;52.384;13.420;2023-02-28T16:17:12;68.67;;;37.30;;
11255;SDS011;5685;52.384;13.420;2023-02-28T16:20:20;69.03;;;37.47;;
11255;SDS011;5685;52.384;13.420;2023-02-28T16:23:24;68.63;;;37.23;;
11255;SDS011;5685;52.384;13.420;2023-02-28T16:26:26;68.20;;;37.00;;
11255;SDS011;5685;52.384;13.420;2023-02-28T16:29:29;68.43;;;37.13;;
11255;SDS011;5685;52.384;13.420;2023-02-28T16:32:34;69.00;;;37.37;;
11255;SDS011;5685;52.384;13.420;2023-02-28T16:35:38;69.13;;;37.40;;
11255;SDS011;5685;52.384;13.420;2023-02-28T16:38:41;68.40;;;37.10;;
11255;SDS011;5685;52.384;13.420;2023-02-28T16:41:44;69.00;;;37.50;;
11255;SDS011;5685;52.384;13.420;2023-02-28T16:44:47;68.57;;;37.30;;
11255;SDS011;5685;52.384;13.420;2023-02-28T16:47:50;68.70;;;37.37;;
11255;SDS011;5685;52.384;13.420;2023-02-28T16:50:54;68.57;;;37.37;;
11255;SDS011;5685;52.384;13.420;2023-02-28T16:53:57;68.67;;;37.50;;
11255;SDS011;5685;52.384;13.420;2023-02-28T16:57:00;68.70;;;37.60;;
11255;SDS011;5685;52.384;13.420;2023-02-28T17:00:03;68.70;;;37.40;;
11255;SDS011;5685;52.384;13.420;2023-02-28T17:03:09;68.93;;;37.47;;
11255;SDS011;5685;52.384;13.420;2023-02-28T17:06:24;68.60;;;37.33;;
11255;SDS011;5685;52.384;13.420;2023-02-28T17:09:28;68.47;;;37.33;;
11255;SDS011;5685;52.384;13.420;2023-02-28T17:12:31;68.80;;;37.40;;
11255;SDS011;5685;52.384;13.420;2023-02-28T17:15:34;68.60;;;37.40;;
11255;SDS011;5685;52.384;13.420;2023-02-28T17:18:37;68.37;;;37.20;;
11255;SDS011;5685;52.384;13.420;2023-02-28T17:21:41;68.23;;;37.20;;
11255;SDS011;5685;52.384;13.420;2023-02-28T17:24:44;68.67;;;37.37;;
11255;SDS011;5685;52.384;13.420;2023-02-28T17:27:47;68.50;;;37.30;;
11255;SDS011;5685;52.384;13.420;2023-02-28T17:30:51;68.87;;;37.43;;
11255;SDS011;5685;52.384;13.420;2023-02-28T17:33:54;68.77;;;37.33;;
11255;SDS011;5685;52.384;13.420;2023-02-28T17:36:58;68.50;;;37.13;;
11255;SDS011;5685;52.384;13.420;2023-02-28T17:40:01;68.43;;;37.10;;
11255;SDS011;5685;52.384;13.420;2023-02-28T17:43:03;68.33;;;37.10;;
11255;SDS011;5685;52.384;13.420;2023-02-28T17:46:06;68.97;;;37.50;;
11255;SDS011;5685;52.384;13.420;2023-02-28T17:49:16;68.93;;;37.33;;
11255;SDS011;5685;52.384;13.420;2023-02-28T17:52:20;68.90;;;37.33;;
11255;SDS011;5685;52.384;13.420;2023-02-28T17:55:23;68.90;;;37.40;;
11255;SDS011;5685;52.384;13.420;2023-02-28T17:58:25;68.67;;;37.30;;
11255;SDS011;5685;52.384;13.420;2023-02-28T18:01:28;68.70;;;37.37;;
11255;SDS011;5685;52.384;13.420;2023-02-28T18:04:31;68.73;;;37.30;;
11255;SDS011;5685;52.384;13.420;2023-02-28T18:07:35;69.27;;;37.50;;
11255;SDS011;5685;52.384;13.420;2023-02-28T18:10:38;68.80;;;37.37;;
11255;SDS011;5685;52.384;13.420;2023-02-28T18:13:41;69.13;;;37.63;;
11255;SDS011;5685;52.384;13.420;2023-02-28T18:16:45;68.83;;;37.50;;
11255;SDS011;5685;52.384;13.420;2023-02-28T18:19:48;68.50;;;37.30;;
11255;SDS011;5685;52.384;13.420;2023-02-28T18:22:52;68.37;;;37.30;;
11255;SDS011;5685;52.384;13.420;2023-02-28T18:25:55;68.47;;;37.30;;